sensor_id;sensor_type;location;lat;lon;timestamp;P1;durP1;ratioP1;P2;durP2;ratioP2
22652;SDS011;11493;43.344;26.226;2023-12-28T00:02:16;41.03;;;19.83;;
22652;SDS011;11493;43.344;26.226;2023-12-28T00:04:43;33.75;;;17.27;;
22652;SDS011;11493;43.344;26.226;2023-12-28T00:07:09;34.83;;;18.20;;
22652;SDS011;11493;43.344;26.226;2023-12-28T00:09:36;34.78;;;18.33;;
22652;SDS011;11493;43.344;26.226;2023-12-28T00:12:04;41.35;;;21.70;;
22652;SDS011;11493;43.344;26.226;2023-12-28T00:14:31;51.38;;;26.90;;
22652;SDS011;11493;43.344;26.226;2023-12-28T00:16:58;51.13;;;24.38;;
22652;SDS011;11493;43.344;26.226;2023-12-28T00:19:25;40.40;;;21.70;;
22652;SDS011;11493;43.344;26.226;2023-12-28T00:21:52;39.35;;;21.73;;
22652;SDS011;11493;43.344;26.226;2023-12-28T00:24:20;38.35;;;22.77;;
22652;SDS011;11493;43.344;26.226;2023-12-28T00:26:48;34.33;;;21.58;;
22652;SDS011;11493;43.344;26.226;2023-12-28T00:29:16;37.08;;;21.23;;
22652;SDS011;11493;43.344;26.226;2023-12-28T00:31:42;40.42;;;21.52;;
22652;SDS011;11493;43.344;26.226;2023-12-28T00:34:09;41.05;;;20.73;;
22652;SDS011;11493;43.344;26.226;2023-12-28T00:36:37;41.63;;;19.83;;
22652;SDS011;11493;43.344;26.226;2023-12-28T00:39:05;49.33;;;25.08;;
22652;SDS011;11493;43.344;26.226;2023-12-28T00:41:32;59.05;;;27.90;;
22652;SDS011;11493;43.344;26.226;2023-12-28T00:43:59;61.70;;;29.13;;
22652;SDS011;11493;43.344;26.226;2023-12-28T00:46:28;57.92;;;28.88;;
22652;SDS011;11493;43.344;26.226;2023-12-28T00:48:55;53.72;;;26.92;;
22652;SDS011;11493;43.344;26.226;2023-12-28T00:51:22;81.25;;;34.47;;
22652;SDS011;11493;43.344;26.226;2023-12-28T00:53:49;89.28;;;42.78;;
22652;SDS011;11493;43.344;26.226;2023-12-28T00:56:16;71.72;;;34.67;;
22652;SDS011;11493;43.344;26.226;2023-12-28T00:58:43;89.43;;;48.15;;
22652;SDS011;11493;43.344;26.226;2023-12-28T01:01:10;65.85;;;34.63;;
22652;SDS011;11493;43.344;26.226;2023-12-28T01:03:39;67.13;;;25.70;;
22652;SDS011;11493;43.344;26.226;2023-12-28T01:06:06;97.30;;;39.65;;
22652;SDS011;11493;43.344;26.226;2023-12-28T01:08:33;101.90;;;36.05;;
22652;SDS011;11493;43.344;26.226;2023-12-28T01:11:01;110.07;;;37.63;;
22652;SDS011;11493;43.344;26.226;2023-12-28T01:13:29;80.50;;;27.58;;
22652;SDS011;11493;43.344;26.226;2023-12-28T01:15:57;86.38;;;25.58;;
22652;SDS011;11493;43.344;26.226;2023-12-28T01:18:25;61.25;;;18.77;;
22652;SDS011;11493;43.344;26.226;2023-12-28T01:20:52;48.83;;;17.42;;
22652;SDS011;11493;43.344;26.226;2023-12-28T01:23:19;58.95;;;17.55;;
22652;SDS011;11493;43.344;26.226;2023-12-28T01:25:46;45.50;;;17.92;;
22652;SDS011;11493;43.344;26.226;2023-12-28T01:28:13;59.10;;;20.05;;
22652;SDS011;11493;43.344;26.226;2023-12-28T01:30:41;70.75;;;22.38;;
22652;SDS011;11493;43.344;26.226;2023-12-28T01:33:08;64.78;;;21.88;;
22652;SDS011;11493;43.344;26.226;2023-12-28T01:35:35;59.33;;;23.33;;
22652;SDS011;11493;43.344;26.226;2023-12-28T01:38:03;62.05;;;22.58;;
22652;SDS011;11493;43.344;26.226;2023-12-28T01:40:31;73.95;;;27.20;;
22652;SDS011;11493;43.344;26.226;2023-12-28T01:42:58;58.03;;;22.65;;
22652;SDS011;11493;43.344;26.226;2023-12-28T01:45:25;70.93;;;24.23;;
22652;SDS011;11493;43.344;26.226;2023-12-28T01:47:53;78.40;;;30.17;;
22652;SDS011;11493;43.344;26.226;2023-12-28T01:50:22;74.82;;;29.83;;
22652;SDS011;11493;43.344;26.226;2023-12-28T01:52:52;52.28;;;21.30;;
22652;SDS011;11493;43.344;26.226;2023-12-28T01:55:21;37.55;;;16.20;;
22652;SDS011;11493;43.344;26.226;2023-12-28T01:57:48;41.63;;;15.88;;
22652;SDS011;11493;43.344;26.226;2023-12-28T02:00:15;48.88;;;21.70;;
22652;SDS011;11493;43.344;26.226;2023-12-28T02:02:42;50.60;;;22.83;;
22652;SDS011;11493;43.344;26.226;2023-12-28T02:05:11;53.70;;;24.17;;
22652;SDS011;11493;43.344;26.226;2023-12-28T02:07:39;33.97;;;17.55;;
22652;SDS011;11493;43.344;26.226;2023-12-28T02:10:06;26.83;;;13.05;;
22652;SDS011;11493;43.344;26.226;2023-12-28T02:12:34;45.00;;;16.30;;
22652;SDS011;11493;43.344;26.226;2023-12-28T02:15:01;78.80;;;18.67;;
22652;SDS011;11493;43.344;26.226;2023-12-28T02:17:35;88.80;;;19.70;;
22652;SDS011;11493;43.344;26.226;2023-12-28T02:20:06;69.07;;;19.38;;
22652;SDS011;11493;43.344;26.226;2023-12-28T02:22:35;82.03;;;18.30;;
22652;SDS011;11493;43.344;26.226;2023-12-28T02:25:06;84.97;;;20.35;;
22652;SDS011;11493;43.344;26.226;2023-12-28T02:27:35;59.08;;;19.05;;
22652;SDS011;11493;43.344;26.226;2023-12-28T02:30:05;58.53;;;17.85;;
22652;SDS011;11493;43.344;26.226;2023-12-28T02:35:23;54.33;;;17.15;;
22652;SDS011;11493;43.344;26.226;2023-12-28T02:37:53;75.57;;;20.52;;
22652;SDS011;11493;43.344;26.226;2023-12-28T02:40:23;77.43;;;19.60;;
22652;SDS011;11493;43.344;26.226;2023-12-28T02:42:50;71.30;;;19.42;;
22652;SDS011;11493;43.344;26.226;2023-12-28T02:45:18;73.05;;;21.13;;
22652;SDS011;11493;43.344;26.226;2023-12-28T02:47:46;64.60;;;19.95;;
22652;SDS011;11493;43.344;26.226;2023-12-28T02:50:12;60.63;;;16.85;;
22652;SDS011;11493;43.344;26.226;2023-12-28T02:52:39;76.78;;;20.75;;
22652;SDS011;11493;43.344;26.226;2023-12-28T02:55:07;84.75;;;22.20;;
22652;SDS011;11493;43.344;26.226;2023-12-28T02:57:34;72.05;;;20.50;;
22652;SDS011;11493;43.344;26.226;2023-12-28T03:00:04;77.28;;;21.02;;
22652;SDS011;11493;43.344;26.226;2023-12-28T03:02:32;53.58;;;19.50;;
22652;SDS011;11493;43.344;26.226;2023-12-28T03:04:59;44.88;;;17.90;;
22652;SDS011;11493;43.344;26.226;2023-12-28T03:07:26;36.95;;;15.63;;
22652;SDS011;11493;43.344;26.226;2023-12-28T03:09:53;39.67;;;15.30;;
22652;SDS011;11493;43.344;26.226;2023-12-28T03:12:20;23.85;;;13.40;;
22652;SDS011;11493;43.344;26.226;2023-12-28T03:14:48;21.13;;;10.32;;
22652;SDS011;11493;43.344;26.226;2023-12-28T03:17:15;22.02;;;11.90;;
22652;SDS011;11493;43.344;26.226;2023-12-28T03:19:42;28.05;;;11.88;;
22652;SDS011;11493;43.344;26.226;2023-12-28T03:22:09;27.55;;;14.57;;
22652;SDS011;11493;43.344;26.226;2023-12-28T03:24:37;27.08;;;12.50;;
22652;SDS011;11493;43.344;26.226;2023-12-28T03:27:05;26.75;;;13.02;;
22652;SDS011;11493;43.344;26.226;2023-12-28T03:29:32;29.40;;;12.77;;
22652;SDS011;11493;43.344;26.226;2023-12-28T03:32:00;36.72;;;14.52;;
22652;SDS011;11493;43.344;26.226;2023-12-28T03:34:27;48.60;;;15.68;;
22652;SDS011;11493;43.344;26.226;2023-12-28T03:36:56;89.38;;;20.77;;
22652;SDS011;11493;43.344;26.226;2023-12-28T03:39:26;84.93;;;24.83;;
22652;SDS011;11493;43.344;26.226;2023-12-28T03:41:54;71.97;;;21.90;;
22652;SDS011;11493;43.344;26.226;2023-12-28T03:44:21;47.97;;;17.58;;
22652;SDS011;11493;43.344;26.226;2023-12-28T03:46:49;52.58;;;17.90;;
22652;SDS011;11493;43.344;26.226;2023-12-28T03:49:17;45.25;;;18.33;;
22652;SDS011;11493;43.344;26.226;2023-12-28T03:51:44;44.05;;;18.10;;
22652;SDS011;11493;43.344;26.226;2023-12-28T03:54:12;53.60;;;17.15;;
22652;SDS011;11493;43.344;26.226;2023-12-28T03:56:42;47.72;;;16.75;;
22652;SDS011;11493;43.344;26.226;2023-12-28T03:59:10;66.60;;;19.05;;
22652;SDS011;11493;43.344;26.226;2023-12-28T04:01:37;165.52;;;30.90;;
22652;SDS011;11493;43.344;26.226;2023-12-28T04:04:04;141.30;;;29.90;;
22652;SDS011;11493;43.344;26.226;2023-12-28T04:06:32;120.10;;;27.60;;
22652;SDS011;11493;43.344;26.226;2023-12-28T04:08:59;117.70;;;28.77;;
22652;SDS011;11493;43.344;26.226;2023-12-28T04:11:26;83.55;;;20.83;;
22652;SDS011;11493;43.344;26.226;2023-12-28T04:13:52;57.42;;;19.50;;
22652;SDS011;11493;43.344;26.226;2023-12-28T04:16:20;43.72;;;14.55;;
22652;SDS011;11493;43.344;26.226;2023-12-28T04:18:47;37.20;;;11.73;;
22652;SDS011;11493;43.344;26.226;2023-12-28T04:21:14;29.45;;;10.85;;
22652;SDS011;11493;43.344;26.226;2023-12-28T04:23:42;37.00;;;11.15;;
22652;SDS011;11493;43.344;26.226;2023-12-28T04:26:09;31.00;;;12.07;;
22652;SDS011;11493;43.344;26.226;2023-12-28T04:28:36;40.60;;;14.30;;
22652;SDS011;11493;43.344;26.226;2023-12-28T04:31:04;25.45;;;11.07;;
22652;SDS011;11493;43.344;26.226;2023-12-28T04:33:31;24.02;;;10.30;;
22652;SDS011;11493;43.344;26.226;2023-12-28T04:36:02;23.05;;;10.75;;
22652;SDS011;11493;43.344;26.226;2023-12-28T04:38:33;22.80;;;10.88;;
22652;SDS011;11493;43.344;26.226;2023-12-28T04:41:00;62.38;;;33.88;;
22652;SDS011;11493;43.344;26.226;2023-12-28T04:43:28;40.83;;;26.00;;
22652;SDS011;11493;43.344;26.226;2023-12-28T04:45:55;43.10;;;24.02;;
22652;SDS011;11493;43.344;26.226;2023-12-28T04:48:24;58.00;;;30.85;;
22652;SDS011;11493;43.344;26.226;2023-12-28T04:50:52;41.95;;;26.13;;
22652;SDS011;11493;43.344;26.226;2023-12-28T04:53:20;38.72;;;21.80;;
22652;SDS011;11493;43.344;26.226;2023-12-28T04:55:47;48.78;;;23.80;;
22652;SDS011;11493;43.344;26.226;2023-12-28T04:58:14;45.35;;;16.95;;
22652;SDS011;11493;43.344;26.226;2023-12-28T05:00:41;57.40;;;18.75;;
22652;SDS011;11493;43.344;26.226;2023-12-28T05:03:09;61.80;;;17.98;;
22652;SDS011;11493;43.344;26.226;2023-12-28T05:05:36;63.83;;;17.45;;
22652;SDS011;11493;43.344;26.226;2023-12-28T05:08:03;49.63;;;16.08;;
22652;SDS011;11493;43.344;26.226;2023-12-28T05:10:30;46.45;;;15.68;;
22652;SDS011;11493;43.344;26.226;2023-12-28T05:12:57;45.25;;;16.20;;
22652;SDS011;11493;43.344;26.226;2023-12-28T05:15:28;41.23;;;14.87;;
22652;SDS011;11493;43.344;26.226;2023-12-28T05:17:56;30.45;;;16.35;;
22652;SDS011;11493;43.344;26.226;2023-12-28T05:20:24;31.02;;;13.13;;
22652;SDS011;11493;43.344;26.226;2023-12-28T05:22:51;34.50;;;12.02;;
22652;SDS011;11493;43.344;26.226;2023-12-28T05:25:17;72.90;;;27.52;;
22652;SDS011;11493;43.344;26.226;2023-12-28T05:27:44;51.40;;;24.63;;
22652;SDS011;11493;43.344;26.226;2023-12-28T05:30:11;66.38;;;31.13;;
22652;SDS011;11493;43.344;26.226;2023-12-28T05:32:39;31.13;;;17.73;;
22652;SDS011;11493;43.344;26.226;2023-12-28T05:35:06;25.40;;;13.77;;
22652;SDS011;11493;43.344;26.226;2023-12-28T05:37:34;20.88;;;11.95;;
22652;SDS011;11493;43.344;26.226;2023-12-28T05:40:01;21.33;;;10.48;;
22652;SDS011;11493;43.344;26.226;2023-12-28T05:42:28;11.48;;;8.43;;
22652;SDS011;11493;43.344;26.226;2023-12-28T05:44:56;14.95;;;7.97;;
22652;SDS011;11493;43.344;26.226;2023-12-28T05:47:23;15.20;;;7.25;;
22652;SDS011;11493;43.344;26.226;2023-12-28T05:49:50;13.02;;;8.15;;
22652;SDS011;11493;43.344;26.226;2023-12-28T05:52:19;36.70;;;17.08;;
22652;SDS011;11493;43.344;26.226;2023-12-28T05:54:46;60.63;;;23.10;;
22652;SDS011;11493;43.344;26.226;2023-12-28T05:57:15;43.10;;;20.23;;
22652;SDS011;11493;43.344;26.226;2023-12-28T05:59:42;56.92;;;26.60;;
22652;SDS011;11493;43.344;26.226;2023-12-28T06:02:09;58.33;;;28.98;;
22652;SDS011;11493;43.344;26.226;2023-12-28T06:04:36;66.88;;;30.88;;
22652;SDS011;11493;43.344;26.226;2023-12-28T06:07:04;47.28;;;22.38;;
22652;SDS011;11493;43.344;26.226;2023-12-28T06:09:32;58.50;;;29.38;;
22652;SDS011;11493;43.344;26.226;2023-12-28T06:11:59;47.05;;;22.48;;
22652;SDS011;11493;43.344;26.226;2023-12-28T06:14:29;41.15;;;23.58;;
22652;SDS011;11493;43.344;26.226;2023-12-28T06:16:56;41.63;;;21.23;;
22652;SDS011;11493;43.344;26.226;2023-12-28T06:19:26;31.30;;;18.30;;
22652;SDS011;11493;43.344;26.226;2023-12-28T06:21:55;29.08;;;14.30;;
22652;SDS011;11493;43.344;26.226;2023-12-28T06:24:25;20.83;;;14.18;;
22652;SDS011;11493;43.344;26.226;2023-12-28T06:26:52;71.95;;;31.13;;
22652;SDS011;11493;43.344;26.226;2023-12-28T06:29:19;49.42;;;22.65;;
22652;SDS011;11493;43.344;26.226;2023-12-28T06:31:46;27.05;;;16.55;;
22652;SDS011;11493;43.344;26.226;2023-12-28T06:34:13;25.02;;;14.35;;
22652;SDS011;11493;43.344;26.226;2023-12-28T06:36:40;20.02;;;12.13;;
22652;SDS011;11493;43.344;26.226;2023-12-28T06:39:09;19.38;;;12.25;;
22652;SDS011;11493;43.344;26.226;2023-12-28T06:41:37;32.10;;;19.23;;
22652;SDS011;11493;43.344;26.226;2023-12-28T06:44:04;25.80;;;17.48;;
22652;SDS011;11493;43.344;26.226;2023-12-28T06:46:32;25.27;;;16.63;;
22652;SDS011;11493;43.344;26.226;2023-12-28T06:48:59;22.20;;;14.93;;
22652;SDS011;11493;43.344;26.226;2023-12-28T06:51:27;35.60;;;26.85;;
22652;SDS011;11493;43.344;26.226;2023-12-28T06:53:54;33.45;;;23.10;;
22652;SDS011;11493;43.344;26.226;2023-12-28T06:56:21;41.05;;;28.67;;
22652;SDS011;11493;43.344;26.226;2023-12-28T06:58:48;30.90;;;19.63;;
22652;SDS011;11493;43.344;26.226;2023-12-28T07:01:15;26.77;;;17.80;;
22652;SDS011;11493;43.344;26.226;2023-12-28T07:03:42;27.95;;;16.35;;
22652;SDS011;11493;43.344;26.226;2023-12-28T07:06:10;30.27;;;15.63;;
22652;SDS011;11493;43.344;26.226;2023-12-28T07:08:37;26.65;;;15.75;;
22652;SDS011;11493;43.344;26.226;2023-12-28T07:11:04;29.98;;;18.70;;
22652;SDS011;11493;43.344;26.226;2023-12-28T07:13:31;30.20;;;18.02;;
22652;SDS011;11493;43.344;26.226;2023-12-28T07:15:59;35.75;;;19.15;;
22652;SDS011;11493;43.344;26.226;2023-12-28T07:18:27;38.38;;;21.52;;
22652;SDS011;11493;43.344;26.226;2023-12-28T07:20:55;41.40;;;22.15;;
22652;SDS011;11493;43.344;26.226;2023-12-28T07:23:23;43.42;;;19.60;;
22652;SDS011;11493;43.344;26.226;2023-12-28T07:25:50;37.50;;;21.52;;
22652;SDS011;11493;43.344;26.226;2023-12-28T07:28:20;96.10;;;37.92;;
22652;SDS011;11493;43.344;26.226;2023-12-28T07:30:48;58.33;;;27.42;;
22652;SDS011;11493;43.344;26.226;2023-12-28T07:33:15;152.48;;;54.95;;
22652;SDS011;11493;43.344;26.226;2023-12-28T07:35:42;83.88;;;35.20;;
22652;SDS011;11493;43.344;26.226;2023-12-28T07:38:09;47.10;;;23.65;;
22652;SDS011;11493;43.344;26.226;2023-12-28T07:40:36;29.85;;;18.27;;
22652;SDS011;11493;43.344;26.226;2023-12-28T07:43:03;31.30;;;17.45;;
22652;SDS011;11493;43.344;26.226;2023-12-28T07:45:31;58.47;;;25.38;;
22652;SDS011;11493;43.344;26.226;2023-12-28T07:47:59;32.90;;;20.48;;
22652;SDS011;11493;43.344;26.226;2023-12-28T07:50:29;86.70;;;32.43;;
22652;SDS011;11493;43.344;26.226;2023-12-28T07:52:56;78.28;;;31.45;;
22652;SDS011;11493;43.344;26.226;2023-12-28T07:55:23;74.43;;;30.63;;
22652;SDS011;11493;43.344;26.226;2023-12-28T07:57:52;66.95;;;29.85;;
22652;SDS011;11493;43.344;26.226;2023-12-28T08:00:19;65.10;;;28.23;;
22652;SDS011;11493;43.344;26.226;2023-12-28T08:02:46;57.67;;;27.23;;
22652;SDS011;11493;43.344;26.226;2023-12-28T08:05:14;110.90;;;40.75;;
22652;SDS011;11493;43.344;26.226;2023-12-28T08:07:40;197.40;;;74.82;;
22652;SDS011;11493;43.344;26.226;2023-12-28T08:10:08;129.27;;;50.00;;
22652;SDS011;11493;43.344;26.226;2023-12-28T08:12:35;60.10;;;27.88;;
22652;SDS011;11493;43.344;26.226;2023-12-28T08:15:02;78.57;;;32.03;;
22652;SDS011;11493;43.344;26.226;2023-12-28T08:17:30;76.95;;;34.67;;
22652;SDS011;11493;43.344;26.226;2023-12-28T08:19:57;107.28;;;40.00;;
22652;SDS011;11493;43.344;26.226;2023-12-28T08:22:25;62.70;;;33.28;;
22652;SDS011;11493;43.344;26.226;2023-12-28T08:24:52;65.43;;;31.52;;
22652;SDS011;11493;43.344;26.226;2023-12-28T08:27:19;35.60;;;17.48;;
22652;SDS011;11493;43.344;26.226;2023-12-28T08:29:46;24.13;;;15.02;;
22652;SDS011;11493;43.344;26.226;2023-12-28T08:32:13;27.45;;;12.85;;
22652;SDS011;11493;43.344;26.226;2023-12-28T08:34:40;26.35;;;14.18;;
22652;SDS011;11493;43.344;26.226;2023-12-28T08:37:07;19.30;;;12.15;;
22652;SDS011;11493;43.344;26.226;2023-12-28T08:39:34;24.95;;;11.90;;
22652;SDS011;11493;43.344;26.226;2023-12-28T08:42:01;18.55;;;10.70;;
22652;SDS011;11493;43.344;26.226;2023-12-28T08:44:29;19.45;;;11.35;;
22652;SDS011;11493;43.344;26.226;2023-12-28T08:47:13;14.50;;;8.88;;
22652;SDS011;11493;43.344;26.226;2023-12-28T08:49:40;15.25;;;10.65;;
22652;SDS011;11493;43.344;26.226;2023-12-28T08:52:08;19.58;;;12.27;;
22652;SDS011;11493;43.344;26.226;2023-12-28T08:54:37;22.02;;;12.80;;
22652;SDS011;11493;43.344;26.226;2023-12-28T08:57:04;26.10;;;19.52;;
22652;SDS011;11493;43.344;26.226;2023-12-28T08:59:31;36.67;;;23.83;;
22652;SDS011;11493;43.344;26.226;2023-12-28T09:01:58;47.40;;;24.10;;
22652;SDS011;11493;43.344;26.226;2023-12-28T09:04:25;37.10;;;23.63;;
22652;SDS011;11493;43.344;26.226;2023-12-28T09:06:52;37.25;;;22.95;;
22652;SDS011;11493;43.344;26.226;2023-12-28T09:09:19;31.35;;;20.65;;
22652;SDS011;11493;43.344;26.226;2023-12-28T09:11:46;36.70;;;21.15;;
22652;SDS011;11493;43.344;26.226;2023-12-28T09:14:13;49.35;;;28.45;;
22652;SDS011;11493;43.344;26.226;2023-12-28T09:16:40;68.60;;;38.47;;
22652;SDS011;11493;43.344;26.226;2023-12-28T09:19:08;63.53;;;41.13;;
22652;SDS011;11493;43.344;26.226;2023-12-28T09:21:36;56.00;;;35.13;;
22652;SDS011;11493;43.344;26.226;2023-12-28T09:24:03;135.70;;;85.88;;
22652;SDS011;11493;43.344;26.226;2023-12-28T09:26:30;43.28;;;21.38;;
22652;SDS011;11493;43.344;26.226;2023-12-28T09:28:58;30.38;;;18.52;;
22652;SDS011;11493;43.344;26.226;2023-12-28T09:31:25;19.15;;;13.00;;
22652;SDS011;11493;43.344;26.226;2023-12-28T09:33:53;19.63;;;10.40;;
22652;SDS011;11493;43.344;26.226;2023-12-28T09:36:20;37.42;;;12.63;;
22652;SDS011;11493;43.344;26.226;2023-12-28T09:38:47;22.90;;;12.27;;
22652;SDS011;11493;43.344;26.226;2023-12-28T09:41:14;15.75;;;9.82;;
22652;SDS011;11493;43.344;26.226;2023-12-28T09:44:28;21.38;;;7.65;;
22652;SDS011;11493;43.344;26.226;2023-12-28T09:46:42;12.85;;;6.75;;
22652;SDS011;11493;43.344;26.226;2023-12-28T09:49:10;15.32;;;7.50;;
22652;SDS011;11493;43.344;26.226;2023-12-28T09:51:38;9.60;;;4.72;;
22652;SDS011;11493;43.344;26.226;2023-12-28T09:54:05;16.67;;;5.65;;
22652;SDS011;11493;43.344;26.226;2023-12-28T09:56:33;23.27;;;7.93;;
22652;SDS011;11493;43.344;26.226;2023-12-28T09:59:02;11.60;;;5.22;;
22652;SDS011;11493;43.344;26.226;2023-12-28T10:01:30;13.27;;;4.97;;
22652;SDS011;11493;43.344;26.226;2023-12-28T10:03:58;9.40;;;4.43;;
22652;SDS011;11493;43.344;26.226;2023-12-28T10:06:25;16.30;;;4.50;;
22652;SDS011;11493;43.344;26.226;2023-12-28T10:08:53;10.90;;;4.72;;
22652;SDS011;11493;43.344;26.226;2023-12-28T10:11:21;13.95;;;5.20;;
22652;SDS011;11493;43.344;26.226;2023-12-28T10:13:48;10.90;;;5.47;;
22652;SDS011;11493;43.344;26.226;2023-12-28T10:16:16;9.48;;;4.57;;
22652;SDS011;11493;43.344;26.226;2023-12-28T10:18:46;7.53;;;4.97;;
22652;SDS011;11493;43.344;26.226;2023-12-28T10:21:13;7.90;;;4.65;;
22652;SDS011;11493;43.344;26.226;2023-12-28T10:23:40;15.38;;;5.15;;
22652;SDS011;11493;43.344;26.226;2023-12-28T10:26:08;7.00;;;3.53;;
22652;SDS011;11493;43.344;26.226;2023-12-28T10:28:35;31.75;;;5.65;;
22652;SDS011;11493;43.344;26.226;2023-12-28T10:31:07;8.00;;;4.70;;
22652;SDS011;11493;43.344;26.226;2023-12-28T10:33:35;9.60;;;3.97;;
22652;SDS011;11493;43.344;26.226;2023-12-28T10:36:07;16.08;;;4.53;;
22652;SDS011;11493;43.344;26.226;2023-12-28T10:38:36;11.98;;;3.78;;
22652;SDS011;11493;43.344;26.226;2023-12-28T10:41:07;9.27;;;3.80;;
22652;SDS011;11493;43.344;26.226;2023-12-28T10:43:40;19.73;;;4.47;;
22652;SDS011;11493;43.344;26.226;2023-12-28T10:46:10;20.70;;;4.25;;
22652;SDS011;11493;43.344;26.226;2023-12-28T10:48:46;7.95;;;4.15;;
22652;SDS011;11493;43.344;26.226;2023-12-28T10:51:17;13.07;;;4.07;;
22652;SDS011;11493;43.344;26.226;2023-12-28T10:53:54;12.15;;;5.13;;
22652;SDS011;11493;43.344;26.226;2023-12-28T10:56:36;28.15;;;6.15;;
22652;SDS011;11493;43.344;26.226;2023-12-28T10:59:21;13.07;;;4.28;;
22652;SDS011;11493;43.344;26.226;2023-12-28T11:01:54;14.15;;;3.92;;
22652;SDS011;11493;43.344;26.226;2023-12-28T11:04:41;10.32;;;3.42;;
22652;SDS011;11493;43.344;26.226;2023-12-28T11:07:13;16.40;;;4.00;;
22652;SDS011;11493;43.344;26.226;2023-12-28T11:09:42;11.30;;;3.95;;
22652;SDS011;11493;43.344;26.226;2023-12-28T11:12:10;15.82;;;4.63;;
22652;SDS011;11493;43.344;26.226;2023-12-28T11:14:41;13.25;;;5.93;;
22652;SDS011;11493;43.344;26.226;2023-12-28T11:17:09;24.27;;;8.48;;
22652;SDS011;11493;43.344;26.226;2023-12-28T11:19:37;6.05;;;4.10;;
22652;SDS011;11493;43.344;26.226;2023-12-28T11:22:06;15.90;;;4.55;;
22652;SDS011;11493;43.344;26.226;2023-12-28T11:24:34;10.35;;;6.28;;
22652;SDS011;11493;43.344;26.226;2023-12-28T11:27:03;13.13;;;4.40;;
22652;SDS011;11493;43.344;26.226;2023-12-28T11:29:37;7.38;;;4.03;;
22652;SDS011;11493;43.344;26.226;2023-12-28T11:32:05;11.00;;;5.30;;
22652;SDS011;11493;43.344;26.226;2023-12-28T11:34:32;11.82;;;5.90;;
22652;SDS011;11493;43.344;26.226;2023-12-28T11:37:04;14.13;;;5.13;;
22652;SDS011;11493;43.344;26.226;2023-12-28T11:39:36;5.65;;;3.60;;
22652;SDS011;11493;43.344;26.226;2023-12-28T11:42:06;6.78;;;3.88;;
22652;SDS011;11493;43.344;26.226;2023-12-28T11:44:42;10.90;;;4.88;;
22652;SDS011;11493;43.344;26.226;2023-12-28T11:47:20;3.72;;;2.50;;
22652;SDS011;11493;43.344;26.226;2023-12-28T11:49:49;18.00;;;4.85;;
22652;SDS011;11493;43.344;26.226;2023-12-28T11:52:22;8.30;;;3.83;;
22652;SDS011;11493;43.344;26.226;2023-12-28T11:54:56;9.40;;;3.08;;
22652;SDS011;11493;43.344;26.226;2023-12-28T11:57:26;4.97;;;2.63;;
22652;SDS011;11493;43.344;26.226;2023-12-28T11:59:56;10.18;;;2.92;;
22652;SDS011;11493;43.344;26.226;2023-12-28T12:02:26;11.98;;;2.97;;
22652;SDS011;11493;43.344;26.226;2023-12-28T12:04:54;7.43;;;3.20;;
22652;SDS011;11493;43.344;26.226;2023-12-28T12:07:24;8.10;;;4.22;;
22652;SDS011;11493;43.344;26.226;2023-12-28T12:09:58;16.75;;;4.60;;
22652;SDS011;11493;43.344;26.226;2023-12-28T12:12:26;3.45;;;2.00;;
22652;SDS011;11493;43.344;26.226;2023-12-28T12:14:54;6.75;;;3.22;;
22652;SDS011;11493;43.344;26.226;2023-12-28T12:17:23;3.67;;;2.47;;
22652;SDS011;11493;43.344;26.226;2023-12-28T12:19:52;15.02;;;2.95;;
22652;SDS011;11493;43.344;26.226;2023-12-28T12:22:22;10.57;;;3.53;;
22652;SDS011;11493;43.344;26.226;2023-12-28T12:24:53;3.67;;;2.22;;
22652;SDS011;11493;43.344;26.226;2023-12-28T12:27:23;7.35;;;2.00;;
22652;SDS011;11493;43.344;26.226;2023-12-28T12:29:50;4.85;;;2.47;;
22652;SDS011;11493;43.344;26.226;2023-12-28T12:32:17;7.53;;;2.45;;
22652;SDS011;11493;43.344;26.226;2023-12-28T12:34:44;8.02;;;3.00;;
22652;SDS011;11493;43.344;26.226;2023-12-28T12:37:14;10.25;;;3.17;;
22652;SDS011;11493;43.344;26.226;2023-12-28T12:39:41;11.55;;;4.93;;
22652;SDS011;11493;43.344;26.226;2023-12-28T12:42:13;14.45;;;6.00;;
22652;SDS011;11493;43.344;26.226;2023-12-28T12:44:41;13.73;;;5.75;;
22652;SDS011;11493;43.344;26.226;2023-12-28T12:47:08;19.70;;;6.38;;
22652;SDS011;11493;43.344;26.226;2023-12-28T12:49:35;4.68;;;3.05;;
22652;SDS011;11493;43.344;26.226;2023-12-28T12:52:04;5.90;;;2.63;;
22652;SDS011;11493;43.344;26.226;2023-12-28T12:54:33;5.28;;;2.60;;
22652;SDS011;11493;43.344;26.226;2023-12-28T12:57:00;6.57;;;3.05;;
22652;SDS011;11493;43.344;26.226;2023-12-28T12:59:29;8.90;;;2.95;;
22652;SDS011;11493;43.344;26.226;2023-12-28T13:01:57;6.10;;;2.83;;
22652;SDS011;11493;43.344;26.226;2023-12-28T13:04:24;10.75;;;2.70;;
22652;SDS011;11493;43.344;26.226;2023-12-28T13:06:51;8.23;;;2.58;;
22652;SDS011;11493;43.344;26.226;2023-12-28T13:09:18;4.90;;;2.80;;
22652;SDS011;11493;43.344;26.226;2023-12-28T13:11:46;3.13;;;2.53;;
22652;SDS011;11493;43.344;26.226;2023-12-28T13:16:43;12.32;;;3.90;;
22652;SDS011;11493;43.344;26.226;2023-12-28T13:19:13;6.75;;;3.13;;
22652;SDS011;11493;43.344;26.226;2023-12-28T13:21:40;5.07;;;3.38;;
22652;SDS011;11493;43.344;26.226;2023-12-28T13:24:07;14.43;;;4.22;;
22652;SDS011;11493;43.344;26.226;2023-12-28T13:26:34;7.20;;;4.65;;
22652;SDS011;11493;43.344;26.226;2023-12-28T13:29:02;7.00;;;4.85;;
22652;SDS011;11493;43.344;26.226;2023-12-28T13:31:32;7.57;;;5.07;;
22652;SDS011;11493;43.344;26.226;2023-12-28T13:33:59;7.80;;;3.03;;
22652;SDS011;11493;43.344;26.226;2023-12-28T13:36:26;25.95;;;14.45;;
22652;SDS011;11493;43.344;26.226;2023-12-28T13:38:55;14.82;;;8.45;;
22652;SDS011;11493;43.344;26.226;2023-12-28T13:41:22;11.50;;;5.80;;
22652;SDS011;11493;43.344;26.226;2023-12-28T13:43:49;7.50;;;5.93;;
22652;SDS011;11493;43.344;26.226;2023-12-28T13:46:25;12.73;;;4.45;;
22652;SDS011;11493;43.344;26.226;2023-12-28T13:48:52;9.75;;;4.82;;
22652;SDS011;11493;43.344;26.226;2023-12-28T13:51:19;15.38;;;6.68;;
22652;SDS011;11493;43.344;26.226;2023-12-28T13:53:47;25.65;;;9.00;;
22652;SDS011;11493;43.344;26.226;2023-12-28T13:56:14;26.40;;;10.90;;
22652;SDS011;11493;43.344;26.226;2023-12-28T13:58:41;29.70;;;13.40;;
22652;SDS011;11493;43.344;26.226;2023-12-28T14:01:08;13.30;;;8.43;;
22652;SDS011;11493;43.344;26.226;2023-12-28T14:03:36;17.88;;;7.70;;
22652;SDS011;11493;43.344;26.226;2023-12-28T14:06:03;13.63;;;6.88;;
22652;SDS011;11493;43.344;26.226;2023-12-28T14:08:31;16.30;;;8.13;;
22652;SDS011;11493;43.344;26.226;2023-12-28T14:10:59;16.05;;;10.27;;
22652;SDS011;11493;43.344;26.226;2023-12-28T14:13:26;58.15;;;26.85;;
22652;SDS011;11493;43.344;26.226;2023-12-28T14:15:53;40.20;;;18.67;;
22652;SDS011;11493;43.344;26.226;2023-12-28T14:18:20;39.00;;;18.88;;
22652;SDS011;11493;43.344;26.226;2023-12-28T14:20:47;39.42;;;17.38;;
22652;SDS011;11493;43.344;26.226;2023-12-28T14:23:16;35.50;;;17.75;;
22652;SDS011;11493;43.344;26.226;2023-12-28T14:25:44;37.85;;;19.25;;